Hunters Hill, Australia
Current Conditions -  °F | °C
As of 12:00 AM on Friday 31 Oct 2014 (Local Time) from YMAY Reporting Station
Clear Clear  
Wind Chill: 57°   Ceiling: Unl
Heat Index: 57°   Visibility: 5mi
Dew Point: 45°   Wind: 0mph
Humidity: 63%   Direction: NA
Pressure: 29.88"   Gusts: NA
Location:  36.22°S, 147.53°E
Report Text: YMAY 301300Z AUTO 00000KT 8000 // NCD 14/07 Q1012
Loading
Personal Weather Stations






























Interactive Weather Map New forecast layout! Learn more

10-Day Weather Forecast

Advertisements
Track Severe Weather on mobile